Time;durP1;ratioP1;P1;durP2;ratioP2;P2;SDS_P1;SDS_P2;PMS_P1;PMS_P2;Temp;Humidity;BMP_temperature;BMP_pressure;BME280_temperature;BME280_humidity;BME280_pressure;Samples;Min_cycle;Max_cycle;Signal;HPM_P1;HPM_P2
2022/06/16 00:01:02;;;;;;;5.80;5.20;;;17.00;91.70;;;;;;5011590;28;20495;-56
2022/06/16 00:03:29;;;;;;;6.17;5.57;;;17.10;90.90;;;;;;5009793;28;20477;-56
2022/06/16 00:05:56;;;;;;;10.40;5.60;;;17.10;91.20;;;;;;5012449;28;20512;-56
2022/06/16 00:08:24;;;;;;;7.40;4.90;;;17.00;91.20;;;;;;5009476;28;20522;-56
2022/06/16 00:13:38;;;;;;;7.13;4.93;;;17.10;90.80;;;;;;5011881;28;21946;-56
2022/06/16 00:16:07;;;;;;;6.60;5.50;;;17.10;91.10;;;;;;5012643;28;20468;-56
2022/06/16 00:18:34;;;;;;;6.07;5.57;;;17.00;91.00;;;;;;5011816;28;20509;-55
2022/06/16 00:21:00;;;;;;;6.93;5.60;;;16.50;91.80;;;;;;5012181;28;20481;-56
2022/06/16 00:23:29;;;;;;;10.93;6.37;;;16.40;92.00;;;;;;5011659;28;20475;-56
2022/06/16 00:25:55;;;;;;;5.90;5.30;;;16.50;92.00;;;;;;5012025;28;20485;-56
2022/06/16 00:28:22;;;;;;;6.83;5.90;;;16.50;92.10;;;;;;5009013;28;20494;-55
2022/06/16 00:30:49;;;;;;;5.83;5.33;;;16.50;92.50;;;;;;5011651;28;20512;-55
2022/06/16 00:33:16;;;;;;;8.90;5.57;;;16.50;92.50;;;;;;5012443;28;20481;-56
2022/06/16 00:35:43;;;;;;;7.23;5.50;;;16.50;92.00;;;;;;5009474;28;20500;-55
2022/06/16 00:38:09;;;;;;;7.23;6.20;;;16.50;91.70;;;;;;5011953;28;20488;-55
2022/06/16 00:40:37;;;;;;;6.63;5.93;;;16.60;91.80;;;;;;5010319;28;20743;-56
2022/06/16 00:43:04;;;;;;;6.90;6.07;;;16.70;91.80;;;;;;5012126;28;20473;-55
2022/06/16 00:45:46;;;;;;;8.43;5.70;;;16.70;92.20;;;;;;5007260;28;20481;-55
2022/06/16 00:48:18;;;;;;;7.23;5.80;;;16.60;92.60;;;;;;5000770;28;20484;-55
2022/06/16 00:50:48;;;;;;;7.93;5.87;;;16.70;92.10;;;;;;5010204;28;20485;-55
2022/06/16 00:53:15;;;;;;;6.20;5.60;;;16.80;92.00;;;;;;5011935;28;20481;-55
2022/06/16 00:55:44;;;;;;;6.63;5.20;;;16.80;91.60;;;;;;5009831;28;20984;-55
2022/06/16 00:58:11;;;;;;;6.30;5.63;;;16.90;91.40;;;;;;5009812;28;20921;-55
2022/06/16 01:00:42;;;;;;;6.57;5.53;;;17.00;91.10;;;;;;5010488;28;20476;-55
2022/06/16 01:03:09;;;;;;;7.03;4.93;;;16.90;91.30;;;;;;5003336;28;20515;-55
2022/06/16 01:05:34;;;;;;;6.43;5.70;;;16.70;91.80;;;;;;5010272;28;20480;-55
2022/06/16 01:08:04;;;;;;;5.70;5.10;;;16.40;92.10;;;;;;5012194;28;21005;-55
2022/06/16 01:10:38;;;;;;;6.30;5.70;;;16.40;92.10;;;;;;5011530;28;20334;-55
2022/06/16 01:16:17;;;;;;;7.10;5.27;;;16.10;92.50;;;;;;5010966;28;20483;-55
2022/06/16 01:18:53;;;;;;;7.43;5.37;;;16.10;92.90;;;;;;5007104;28;20579;-55
2022/06/16 01:21:29;;;;;;;6.20;5.47;;;16.10;92.70;;;;;;5004247;28;20479;-55
2022/06/16 01:24:23;;;;;;;6.83;6.17;;;16.10;93.30;;;;;;5017847;28;20480;-55
2022/06/16 01:27:26;;;;;;;7.10;5.87;;;16.30;92.30;;;;;;5011591;28;20481;-54
2022/06/16 01:30:01;;;;;;;6.70;5.57;;;16.40;92.00;;;;;;4993090;28;21060;-55
2022/06/16 01:32:34;;;;;;;11.63;5.30;;;16.50;92.10;;;;;;4998150;28;20479;-55
2022/06/16 01:35:09;;;;;;;7.63;5.37;;;16.50;92.40;;;;;;5001278;28;20876;-55
2022/06/16 01:37:42;;;;;;;5.90;4.90;;;16.40;91.90;;;;;;5009810;28;20472;-55
2022/06/16 01:40:18;;;;;;;7.30;5.50;;;16.20;92.30;;;;;;5014349;28;20480;-55
2022/06/16 01:42:50;;;;;;;7.60;6.43;;;15.90;93.20;;;;;;5012782;28;20481;-55
2022/06/16 01:45:23;;;;;;;9.17;5.77;;;15.80;93.30;;;;;;5016462;28;20558;-55
2022/06/16 01:47:51;;;;;;;6.10;5.60;;;15.70;93.30;;;;;;5005816;28;20479;-55
2022/06/16 01:50:23;;;;;;;8.67;6.13;;;15.80;92.90;;;;;;5013826;28;20477;-56
2022/06/16 01:52:55;;;;;;;8.20;5.67;;;15.90;92.70;;;;;;5012070;28;20501;-55
2022/06/16 01:55:30;;;;;;;6.83;6.07;;;15.90;93.00;;;;;;5014297;28;20476;-56
2022/06/16 01:58:01;;;;;;;7.13;5.20;;;16.00;92.50;;;;;;5012817;28;20471;-55
2022/06/16 02:00:29;;;;;;;14.00;5.50;;;16.10;92.40;;;;;;5015322;28;20469;-55
2022/06/16 02:03:01;;;;;;;6.43;5.13;;;16.20;92.20;;;;;;5012246;28;20559;-55
2022/06/16 02:05:31;;;;;;;6.23;5.63;;;16.20;92.00;;;;;;5011781;28;20909;-55
2022/06/16 02:08:08;;;;;;;6.07;5.00;;;16.20;91.90;;;;;;4997636;28;21641;-55
2022/06/16 02:10:38;;;;;;;7.00;6.00;;;16.10;92.20;;;;;;5009719;28;21021;-55
2022/06/16 02:13:07;;;;;;;6.73;5.93;;;16.20;91.90;;;;;;5013030;28;20480;-55
2022/06/16 02:15:51;;;;;;;7.07;6.30;;;16.20;91.90;;;;;;5007485;28;20487;-55
2022/06/16 02:18:22;;;;;;;5.90;5.20;;;16.20;92.10;;;;;;5009468;28;20485;-55
2022/06/16 02:20:53;;;;;;;6.60;5.87;;;16.20;91.90;;;;;;5009004;28;20504;-55
2022/06/16 02:23:20;;;;;;;7.83;6.60;;;16.20;91.70;;;;;;5021755;28;20488;-55
2022/06/16 02:25:49;;;;;;;5.83;5.27;;;16.30;91.90;;;;;;5012239;28;20480;-55
2022/06/16 02:28:16;;;;;;;5.90;5.40;;;16.30;92.20;;;;;;5011844;28;21068;-55
2022/06/16 02:30:59;;;;;;;9.00;5.70;;;16.30;92.30;;;;;;5014521;28;20480;-55
2022/06/16 02:33:30;;;;;;;6.13;5.53;;;16.20;92.40;;;;;;5016947;28;20480;-55
2022/06/16 02:36:06;;;;;;;5.93;5.37;;;16.10;92.70;;;;;;5019577;28;20484;-55
2022/06/16 02:38:51;;;;;;;10.60;5.77;;;16.00;93.10;;;;;;5017860;28;20484;-55
2022/06/16 02:41:36;;;;;;;6.90;5.33;;;15.90;92.80;;;;;;5021841;28;20937;-56
2022/06/16 02:44:14;;;;;;;8.50;6.50;;;15.90;93.00;;;;;;5007211;28;20978;-55
2022/06/16 02:46:53;;;;;;;5.47;4.97;;;15.90;92.80;;;;;;5015859;28;20480;-55
2022/06/16 02:49:30;;;;;;;6.83;5.23;;;15.90;93.10;;;;;;5019332;28;20520;-56
2022/06/16 02:52:10;;;;;;;6.80;6.13;;;16.00;92.90;;;;;;5014278;28;20487;-55
2022/06/16 02:54:43;;;;;;;7.97;6.90;;;16.00;93.30;;;;;;5012157;28;21056;-56
2022/06/16 02:57:16;;;;;;;6.97;5.20;;;16.00;92.80;;;;;;5018154;28;20496;-56
2022/06/16 02:59:47;;;;;;;6.67;5.97;;;16.10;92.70;;;;;;5020632;28;20483;-55
2022/06/16 03:02:18;;;;;;;6.30;5.70;;;16.10;92.80;;;;;;5020056;28;20495;-55
2022/06/16 03:04:47;;;;;;;7.03;5.30;;;16.20;92.90;;;;;;5012249;28;20496;-56
2022/06/16 03:07:15;;;;;;;6.27;5.67;;;16.20;93.30;;;;;;5025133;28;20488;-56
2022/06/16 03:09:42;;;;;;;6.47;5.90;;;16.10;93.10;;;;;;5028148;28;20571;-56
2022/06/16 03:12:11;;;;;;;7.47;5.83;;;16.10;93.30;;;;;;4994221;28;20484;-56
2022/06/16 03:14:38;;;;;;;5.87;5.37;;;16.10;93.70;;;;;;5010387;28;20468;-56
2022/06/16 03:17:07;;;;;;;7.53;5.77;;;16.00;93.30;;;;;;5002597;28;20994;-56
2022/06/16 03:19:35;;;;;;;7.67;5.70;;;15.90;93.90;;;;;;5013843;28;20489;-56
2022/06/16 03:22:02;;;;;;;6.03;5.23;;;15.90;93.80;;;;;;5021506;28;20488;-56
2022/06/16 03:24:29;;;;;;;7.53;5.70;;;15.90;93.80;;;;;;5021033;28;20954;-56
2022/06/16 03:26:55;;;;;;;8.40;5.00;;;15.90;94.10;;;;;;5017299;28;20858;-56
2022/06/16 03:29:22;;;;;;;6.20;5.60;;;15.90;94.40;;;;;;5022419;28;20488;-56
2022/06/16 03:31:49;;;;;;;8.70;5.90;;;15.80;94.70;;;;;;5018089;28;20970;-56
2022/06/16 03:34:16;;;;;;;13.13;6.37;;;15.70;94.70;;;;;;5024953;28;20468;-55
2022/06/16 03:36:44;;;;;;;6.80;5.77;;;15.60;94.90;;;;;;5019663;28;20527;-56
2022/06/16 03:39:10;;;;;;;8.07;5.97;;;15.60;94.90;;;;;;5019872;28;20480;-55
2022/06/16 03:41:37;;;;;;;8.37;6.43;;;15.60;95.00;;;;;;5020975;28;20489;-56
2022/06/16 03:44:04;;;;;;;9.50;5.87;;;15.70;94.40;;;;;;5017168;28;20481;-55
2022/06/16 03:46:31;;;;;;;7.33;6.63;;;15.80;94.20;;;;;;5018366;28;20480;-55
2022/06/16 03:48:57;;;;;;;7.53;5.93;;;15.90;94.00;;;;;;5021382;28;20825;-56
2022/06/16 03:51:24;;;;;;;10.33;6.23;;;16.00;94.00;;;;;;5022655;28;20485;-56
2022/06/16 03:53:52;;;;;;;8.13;5.67;;;16.00;94.00;;;;;;5021621;28;20485;-56
2022/06/16 03:56:19;;;;;;;7.73;6.20;;;16.00;94.30;;;;;;5020480;28;20963;-56
2022/06/16 03:58:46;;;;;;;7.50;6.17;;;15.90;94.60;;;;;;5019608;28;20495;-56
2022/06/16 04:01:12;;;;;;;8.80;6.67;;;15.80;95.00;;;;;;5019800;28;20994;-56
2022/06/16 04:06:23;;;;;;;8.10;7.07;;;15.60;96.40;;;;;;5018751;28;20882;-56
2022/06/16 04:08:51;;;;;;;10.13;7.00;;;15.60;96.30;;;;;;5020658;28;20476;-56
2022/06/16 04:11:27;;;;;;;6.97;6.23;;;15.60;96.30;;;;;;5020172;28;20488;-56
2022/06/16 04:13:55;;;;;;;15.93;7.47;;;15.60;96.40;;;;;;5009133;28;20981;-56
2022/06/16 04:16:22;;;;;;;7.97;7.17;;;15.60;96.50;;;;;;5019594;28;20472;-55
2022/06/16 04:18:48;;;;;;;6.60;5.90;;;15.60;96.40;;;;;;5009177;28;20504;-55
2022/06/16 04:21:15;;;;;;;10.33;7.50;;;15.80;96.10;;;;;;5028960;28;20485;-55
2022/06/16 04:23:42;;;;;;;9.00;8.10;;;15.90;96.10;;;;;;5020235;28;20771;-55
2022/06/16 04:26:10;;;;;;;7.40;6.13;;;16.00;96.00;;;;;;5019669;28;20477;-55
2022/06/16 04:28:37;;;;;;;8.17;6.97;;;16.10;95.60;;;;;;5016132;28;20495;-55
2022/06/16 04:31:04;;;;;;;7.87;5.93;;;16.20;95.40;;;;;;5021842;28;20976;-55
2022/06/16 04:33:30;;;;;;;8.30;6.73;;;16.20;95.40;;;;;;5012808;28;20496;-57
2022/06/16 04:35:57;;;;;;;8.20;6.40;;;16.30;95.30;;;;;;5018102;28;20492;-56
2022/06/16 04:38:26;;;;;;;7.47;6.67;;;16.30;95.10;;;;;;5015179;28;20489;-56
2022/06/16 04:40:54;;;;;;;6.07;5.47;;;16.30;95.20;;;;;;5018610;28;20829;-56
2022/06/16 04:43:22;;;;;;;11.40;6.70;;;16.20;95.70;;;;;;5019314;28;20485;-56
2022/06/16 04:45:49;;;;;;;15.63;6.70;;;16.20;95.90;;;;;;5019692;28;20499;-56
2022/06/16 04:48:15;;;;;;;6.60;6.00;;;16.20;96.00;;;;;;5018723;28;20524;-56
2022/06/16 04:50:43;;;;;;;8.30;6.83;;;16.30;95.80;;;;;;5018865;28;20998;-56
2022/06/16 04:53:10;;;;;;;6.50;5.90;;;16.30;95.70;;;;;;5019658;28;20497;-56
2022/06/16 04:55:37;;;;;;;9.30;7.40;;;16.40;95.40;;;;;;5019915;28;20515;-56
2022/06/16 04:58:03;;;;;;;8.13;7.00;;;16.50;95.70;;;;;;5019167;28;20489;-56
2022/06/16 05:00:32;;;;;;;12.63;7.20;;;16.70;95.70;;;;;;5014329;28;20488;-56
2022/06/16 05:02:58;;;;;;;12.13;8.00;;;16.90;95.60;;;;;;5013415;28;20484;-56
2022/06/16 05:05:25;;;;;;;8.20;6.80;;;16.90;95.80;;;;;;5014033;28;20480;-56
2022/06/16 05:07:52;;;;;;;11.07;8.13;;;16.90;96.30;;;;;;5018759;28;20480;-56
2022/06/16 05:10:19;;;;;;;9.43;8.13;;;17.00;96.30;;;;;;5010073;28;20479;-56
2022/06/16 05:12:46;;;;;;;13.67;8.00;;;17.00;96.30;;;;;;5021927;28;20489;-56
2022/06/16 05:15:12;;;;;;;11.87;8.67;;;17.20;96.00;;;;;;5020835;28;20471;-56
2022/06/16 05:17:40;;;;;;;9.20;8.30;;;17.30;96.30;;;;;;4997108;28;20519;-56
2022/06/16 05:20:08;;;;;;;11.60;7.77;;;17.40;95.90;;;;;;5012993;28;20487;-56
2022/06/16 05:22:35;;;;;;;10.67;9.63;;;17.50;96.30;;;;;;5014218;28;20485;-56
2022/06/16 05:25:01;;;;;;;12.63;8.87;;;17.60;95.80;;;;;;5019902;28;20480;-56
2022/06/16 05:27:28;;;;;;;13.63;8.60;;;17.70;95.70;;;;;;5017783;28;20480;-56
2022/06/16 05:29:55;;;;;;;14.00;9.00;;;17.70;95.90;;;;;;5019498;28;20990;-55
2022/06/16 05:32:21;;;;;;;10.23;8.37;;;17.90;95.40;;;;;;5018476;28;20953;-55
2022/06/16 05:34:49;;;;;;;8.57;7.77;;;18.10;95.00;;;;;;5025141;28;20473;-56
2022/06/16 05:37:18;;;;;;;18.43;9.07;;;18.10;95.00;;;;;;5018546;28;20483;-56
2022/06/16 05:39:44;;;;;;;11.00;8.47;;;18.30;94.90;;;;;;5019655;28;20477;-55
2022/06/16 05:42:11;;;;;;;9.67;8.33;;;18.50;94.90;;;;;;5019376;28;20976;-55
2022/06/16 05:44:38;;;;;;;12.90;9.20;;;18.60;94.80;;;;;;5016443;28;20480;-54
2022/06/16 05:47:06;;;;;;;11.37;7.97;;;18.80;94.20;;;;;;5016361;28;20971;-55
2022/06/16 05:49:38;;;;;;;12.00;8.93;;;19.20;94.90;;;;;;5012885;28;21005;-55
2022/06/16 05:52:09;;;;;;;12.43;9.40;;;19.20;94.90;;;;;;5020479;28;20568;-55
2022/06/16 05:54:36;;;;;;;12.67;9.00;;;19.30;94.40;;;;;;5019272;28;20477;-55
2022/06/16 05:57:04;;;;;;;11.80;9.00;;;19.30;95.00;;;;;;5018123;28;20491;-55
2022/06/16 05:59:31;;;;;;;9.80;8.77;;;19.50;95.30;;;;;;5018391;28;20854;-55
2022/06/16 06:01:58;;;;;;;12.10;9.33;;;19.60;94.80;;;;;;5018253;28;20493;-55
2022/06/16 06:04:25;;;;;;;13.33;9.10;;;19.80;94.10;;;;;;5014047;28;20481;-54
2022/06/16 06:06:52;;;;;;;9.03;7.70;;;19.80;94.20;;;;;;5018457;28;20913;-54
2022/06/16 06:17:37;;;;;;;9.40;8.43;;;20.90;93.00;;;;;;5006010;28;20554;-54
2022/06/16 06:20:05;;;;;;;9.47;8.07;;;21.10;92.70;;;;;;5014241;28;20496;-54
2022/06/16 06:22:31;;;;;;;8.00;7.20;;;21.30;91.90;;;;;;5015656;28;20484;-54
2022/06/16 06:25:00;;;;;;;14.73;7.40;;;21.30;92.10;;;;;;5018055;28;20481;-54
2022/06/16 06:27:31;;;;;;;9.27;7.67;;;21.60;91.90;;;;;;5008884;28;20479;-54
2022/06/16 06:29:59;;;;;;;15.63;8.00;;;21.90;91.10;;;;;;5019875;28;20804;-54
2022/06/16 06:32:26;;;;;;;8.13;7.33;;;22.10;90.70;;;;;;5021025;28;20473;-53
2022/06/16 06:34:53;;;;;;;8.20;7.40;;;22.20;90.40;;;;;;5020780;28;20490;-53
2022/06/16 06:37:22;;;;;;;9.60;7.27;;;22.60;89.80;;;;;;5015839;28;20488;-54
2022/06/16 06:39:50;;;;;;;7.83;7.03;;;22.70;90.40;;;;;;5011011;28;20578;-53
2022/06/16 06:42:18;;;;;;;8.37;7.60;;;22.90;90.20;;;;;;5010175;28;20519;-54
2022/06/16 06:44:45;;;;;;;10.63;7.33;;;23.10;89.30;;;;;;5013571;28;20500;-53
2022/06/16 06:47:18;;;;;;;8.47;6.93;;;23.40;89.20;;;;;;5007978;28;20853;-54
2022/06/16 06:49:44;;;;;;;8.13;7.40;;;23.60;88.30;;;;;;5014839;28;20479;-53
2022/06/16 06:52:11;;;;;;;8.00;7.20;;;23.60;87.70;;;;;;5011310;28;20829;-53
2022/06/16 06:54:38;;;;;;;7.43;6.63;;;23.90;84.40;;;;;;5011190;28;20855;-54
2022/06/16 06:57:05;;;;;;;8.83;6.70;;;24.10;85.00;;;;;;5030922;28;21018;-54
2022/06/16 06:59:33;;;;;;;7.20;6.50;;;24.10;83.60;;;;;;5017989;28;20476;-55
2022/06/16 07:01:59;;;;;;;11.93;7.67;;;24.50;82.50;;;;;;5020690;28;20489;-54
2022/06/16 07:04:26;;;;;;;11.63;6.70;;;24.70;83.40;;;;;;5023848;28;20488;-54
2022/06/16 07:06:53;;;;;;;6.70;6.10;;;24.80;82.60;;;;;;5020332;28;20492;-55
2022/06/16 07:09:19;;;;;;;8.13;6.30;;;25.10;82.50;;;;;;5022234;28;20488;-55
2022/06/16 07:11:46;;;;;;;9.13;7.00;;;25.20;81.20;;;;;;5022154;28;20484;-54
2022/06/16 07:14:13;;;;;;;6.50;5.90;;;25.30;82.70;;;;;;5022037;28;20503;-54
2022/06/16 07:16:43;;;;;;;12.63;5.90;;;25.40;78.10;;;;;;5018900;28;20508;-54
2022/06/16 07:19:10;;;;;;;6.50;5.77;;;25.50;78.70;;;;;;4992257;28;20479;-54
2022/06/16 07:21:37;;;;;;;6.60;6.00;;;25.70;79.50;;;;;;5018675;28;20579;-56
2022/06/16 07:24:04;;;;;;;6.50;5.90;;;25.80;78.90;;;;;;5018123;28;20488;-54
2022/06/16 07:26:32;;;;;;;8.20;7.20;;;25.90;78.20;;;;;;5019708;28;20481;-54
2022/06/16 07:29:00;;;;;;;6.50;5.87;;;26.10;77.00;;;;;;5021227;28;20488;-54
2022/06/16 07:31:26;;;;;;;7.40;5.97;;;26.30;77.00;;;;;;5020258;28;20472;-54
2022/06/16 07:33:54;;;;;;;6.80;6.30;;;26.50;76.50;;;;;;5019829;28;20481;-55
2022/06/16 07:36:21;;;;;;;5.37;4.90;;;26.60;77.50;;;;;;5018430;28;20469;-57
2022/06/16 07:38:49;;;;;;;9.30;5.60;;;26.80;76.00;;;;;;5020381;28;20904;-54
2022/06/16 07:41:35;;;;;;;9.07;5.93;;;26.90;74.60;;;;;;5021859;28;20984;-55
2022/06/16 07:44:04;;;;;;;6.53;5.13;;;27.00;76.20;;;;;;5019809;28;20484;-55
2022/06/16 07:46:30;;;;;;;8.07;7.10;;;27.10;73.30;;;;;;5016643;28;20496;-57
2022/06/16 07:48:58;;;;;;;10.33;6.67;;;27.20;75.30;;;;;;5020128;28;20813;-55
2022/06/16 07:51:25;;;;;;;9.73;6.40;;;27.30;73.60;;;;;;5020301;28;20484;-55
2022/06/16 07:53:52;;;;;;;5.93;5.43;;;27.40;72.60;;;;;;5019820;28;20484;-54
2022/06/16 07:56:20;;;;;;;5.90;5.40;;;27.60;73.40;;;;;;5015196;28;20529;-56
2022/06/16 07:58:47;;;;;;;5.83;5.30;;;27.70;71.90;;;;;;5018329;28;20477;-56
2022/06/16 08:01:14;;;;;;;6.07;5.53;;;27.70;72.80;;;;;;5020956;28;20481;-56
2022/06/16 08:03:40;;;;;;;6.30;5.30;;;27.80;72.00;;;;;;5020083;28;20489;-56
2022/06/16 08:06:11;;;;;;;6.83;6.03;;;27.90;71.50;;;;;;5017473;28;21954;-55
2022/06/16 08:08:39;;;;;;;5.63;5.10;;;28.00;73.20;;;;;;5019092;28;21117;-57
2022/06/16 08:12:03;;;;;;;5.90;5.40;;;28.10;70.70;;;;;;5021212;28;20963;-55
2022/06/16 08:13:53;;;;;;;5.90;5.30;;;28.20;69.80;;;;;;5019776;28;20554;-56
2022/06/16 08:16:19;;;;;;;8.30;5.03;;;28.30;70.70;;;;;;5019906;28;20527;-57
2022/06/16 08:18:46;;;;;;;6.20;5.03;;;28.50;70.80;;;;;;5022543;28;20896;-56
2022/06/16 08:21:14;;;;;;;6.53;5.33;;;28.60;69.80;;;;;;5019001;28;20495;-56
2022/06/16 08:23:41;;;;;;;5.40;4.93;;;28.60;69.50;;;;;;5020123;28;20480;-55
2022/06/16 08:26:08;;;;;;;8.60;5.40;;;28.90;68.80;;;;;;5017182;28;20487;-56
2022/06/16 08:28:34;;;;;;;5.40;4.90;;;29.00;69.10;;;;;;5014208;28;20996;-55
2022/06/16 08:31:02;;;;;;;7.67;5.00;;;29.00;70.90;;;;;;5017304;28;20467;-57
2022/06/16 08:33:29;;;;;;;4.43;4.03;;;29.20;67.70;;;;;;5022822;28;20997;-56
2022/06/16 08:35:55;;;;;;;7.27;5.30;;;29.40;67.80;;;;;;5022788;28;20500;-55
2022/06/16 08:38:23;;;;;;;5.87;5.17;;;29.50;68.20;;;;;;5017795;28;20485;-56
2022/06/16 08:41:11;;;;;;;8.77;5.10;;;29.60;64.90;;;;;;5019898;28;20971;-55
2022/06/16 08:43:43;;;;;;;4.47;4.17;;;29.70;65.30;;;;;;5009389;28;21072;-55
2022/06/16 08:46:15;;;;;;;5.20;4.50;;;29.80;65.80;;;;;;5017285;28;20494;-56
2022/06/16 08:48:47;;;;;;;7.87;4.20;;;29.80;63.80;;;;;;5010205;28;20451;-55
2022/06/16 08:51:19;;;;;;;5.70;4.67;;;29.80;64.40;;;;;;5016670;28;20476;-56
2022/06/16 08:54:03;;;;;;;5.23;4.90;;;29.70;66.20;;;;;;5007379;28;20499;-55
2022/06/16 08:56:38;;;;;;;6.67;4.27;;;29.90;66.50;;;;;;5006877;28;21136;-56
2022/06/16 08:59:11;;;;;;;6.90;4.43;;;30.10;66.30;;;;;;5023257;28;21049;-55
2022/06/16 09:01:44;;;;;;;5.40;4.90;;;30.10;64.20;;;;;;5013371;28;20462;-57
2022/06/16 09:04:15;;;;;;;8.83;4.53;;;30.30;65.60;;;;;;5017944;28;20484;-56
2022/06/16 09:06:49;;;;;;;4.90;4.03;;;;;;;;;;5019007;28;20484;-55
2022/06/16 09:12:44;;;;;;;4.53;4.13;;;30.60;63.90;;;;;;4977124;28;20494;-55
2022/06/16 09:15:22;;;;;;;5.73;4.80;;;30.90;64.80;;;;;;5008882;28;20484;-55
2022/06/16 09:18:14;;;;;;;4.90;4.40;;;30.90;63.00;;;;;;5008446;28;20488;-57
2022/06/16 09:20:46;;;;;;;7.73;5.03;;;31.10;63.50;;;;;;5007715;28;20503;-56
2022/06/16 09:23:48;;;;;;;8.83;5.47;;;31.10;63.90;;;;;;5017081;28;20477;-56
2022/06/16 09:26:24;;;;;;;5.37;4.47;;;31.20;64.70;;;;;;5016666;28;20488;-57
2022/06/16 09:28:57;;;;;;;4.77;4.43;;;31.30;61.10;;;;;;5016372;28;20480;-56
2022/06/16 09:31:28;;;;;;;8.77;4.57;;;31.30;62.20;;;;;;5003931;28;20495;-57
2022/06/16 09:34:03;;;;;;;5.80;5.10;;;31.40;66.50;;;;;;5009036;28;20468;-54
2022/06/16 09:36:36;;;;;;;5.70;5.00;;;31.50;64.20;;;;;;5002749;28;20468;-58
2022/06/16 09:39:08;;;;;;;5.10;4.80;;;31.60;63.10;;;;;;5019521;28;21014;-56
2022/06/16 09:44:30;;;;;;;9.13;5.17;;;31.60;63.00;;;;;;5018070;28;21012;-56
2022/06/16 09:47:02;;;;;;;4.90;4.60;;;31.70;62.10;;;;;;5018582;28;20477;-56
2022/06/16 09:49:34;;;;;;;5.53;5.03;;;31.80;62.80;;;;;;5004113;28;20522;-56
2022/06/16 09:52:05;;;;;;;5.00;4.27;;;31.90;61.20;;;;;;5018688;28;20500;-55
2022/06/16 09:54:37;;;;;;;6.10;5.70;;;31.90;59.50;;;;;;5014288;28;20480;-55
2022/06/16 09:57:09;;;;;;;9.50;4.70;;;31.90;60.30;;;;;;5032730;28;21139;-56
2022/06/16 09:59:43;;;;;;;8.80;5.17;;;31.80;61.90;;;;;;5018179;28;20476;-57
2022/06/16 10:02:15;;;;;;;7.00;5.40;;;31.80;61.80;;;;;;5022214;28;20890;-56
2022/06/16 10:04:42;;;;;;;5.73;5.17;;;31.90;62.70;;;;;;5018466;28;20495;-58
2022/06/16 10:07:16;;;;;;;4.90;4.50;;;32.00;63.40;;;;;;5015724;28;20510;-57
2022/06/16 10:10:16;;;;;;;5.73;5.07;;;31.90;60.80;;;;;;5026051;28;20463;-58
2022/06/16 10:12:50;;;;;;;5.93;5.43;;;31.50;57.50;;;;;;5007330;28;20499;-56
2022/06/16 10:15:23;;;;;;;5.80;4.90;;;31.60;62.60;;;;;;5006780;28;20487;-56
2022/06/16 10:17:51;;;;;;;6.13;5.33;;;31.90;64.80;;;;;;5028009;28;20499;-56
2022/06/16 10:20:21;;;;;;;8.50;5.10;;;32.00;60.90;;;;;;5021677;28;20503;-55
2022/06/16 10:22:51;;;;;;;5.93;5.37;;;32.10;62.80;;;;;;5021235;28;20480;-57
2022/06/16 10:25:23;;;;;;;5.10;4.60;;;32.20;62.40;;;;;;5016514;28;20470;-55
2022/06/16 10:27:57;;;;;;;5.70;4.47;;;32.40;60.10;;;;;;5029517;28;20856;-56
2022/06/16 10:30:26;;;;;;;5.53;5.03;;;32.50;60.10;;;;;;5022294;28;20757;-56
2022/06/16 10:33:01;;;;;;;5.50;4.27;;;32.60;59.60;;;;;;5021188;28;20488;-55
2022/06/16 10:35:28;;;;;;;4.80;4.50;;;32.70;61.50;;;;;;5021730;28;20476;-56
2022/06/16 10:37:56;;;;;;;4.77;4.37;;;32.70;60.90;;;;;;5019493;28;20575;-55
2022/06/16 10:40:28;;;;;;;4.43;4.13;;;32.80;61.00;;;;;;5022557;28;20594;-56
2022/06/16 10:43:01;;;;;;;7.10;5.00;;;32.80;57.00;;;;;;5022607;28;20480;-55
2022/06/16 10:45:32;;;;;;;4.50;4.20;;;32.70;55.80;;;;;;5016227;28;20489;-54
2022/06/16 10:48:03;;;;;;;4.60;4.20;;;32.20;57.50;;;;;;5016651;28;20450;-53
2022/06/16 10:50:35;;;;;;;4.63;4.20;;;32.00;58.30;;;;;;5013549;28;21010;-52
2022/06/16 10:53:05;;;;;;;8.67;5.30;;;31.80;57.90;;;;;;5017069;28;20801;-52
2022/06/16 10:55:41;;;;;;;4.97;4.57;;;31.70;57.20;;;;;;5002705;28;20813;-52
2022/06/16 10:58:18;;;;;;;5.13;4.63;;;31.60;58.40;;;;;;5016154;28;20476;-52
2022/06/16 11:01:02;;;;;;;4.33;3.93;;;31.60;57.20;;;;;;5001697;28;20497;-53
2022/06/16 11:03:34;;;;;;;4.37;4.07;;;31.50;59.00;;;;;;5017629;28;20470;-54
2022/06/16 11:06:01;;;;;;;3.70;3.43;;;31.50;56.00;;;;;;5017476;28;20489;-55
2022/06/16 11:08:34;;;;;;;5.57;4.10;;;31.50;56.60;;;;;;5018060;28;20481;-55
2022/06/16 11:11:02;;;;;;;5.53;3.27;;;31.70;54.30;;;;;;5019969;28;20469;-54
2022/06/16 11:13:32;;;;;;;4.10;3.80;;;32.00;56.10;;;;;;5018581;28;20491;-54
2022/06/16 11:15:59;;;;;;;4.50;3.87;;;32.20;56.30;;;;;;5013198;28;20483;-55
2022/06/16 11:18:29;;;;;;;3.60;3.30;;;32.20;56.90;;;;;;5029854;28;20488;-55
2022/06/16 11:20:58;;;;;;;4.17;3.87;;;32.30;55.50;;;;;;5018193;28;21006;-54
2022/06/16 11:23:28;;;;;;;8.77;4.67;;;;;;;;;;5013852;28;20480;-54
2022/06/16 11:25:59;;;;;;;4.47;3.80;;;32.80;56.80;;;;;;5016823;28;20480;-54
2022/06/16 11:28:27;;;;;;;10.20;5.10;;;32.90;56.50;;;;;;5015595;28;20978;-56
2022/06/16 11:30:59;;;;;;;5.23;4.07;;;32.80;56.40;;;;;;5015869;28;20459;-59
2022/06/16 11:36:21;;;;;;;4.70;4.30;;;33.00;54.30;;;;;;5012207;28;20482;-55
2022/06/16 11:38:55;;;;;;;4.20;3.80;;;33.10;55.30;;;;;;5012256;28;20484;-55
2022/06/16 11:41:25;;;;;;;4.70;4.17;;;33.20;54.30;;;;;;5018790;28;20476;-54
2022/06/16 11:44:15;;;;;;;4.23;3.80;;;33.20;54.50;;;;;;5020863;28;20959;-54
2022/06/16 11:46:50;;;;;;;4.40;4.00;;;33.40;54.80;;;;;;5003452;28;20488;-54
2022/06/16 11:49:30;;;;;;;4.43;4.03;;;33.20;53.90;;;;;;5033397;28;20476;-54
2022/06/16 11:52:08;;;;;;;6.90;4.37;;;33.30;54.70;;;;;;4998628;28;20518;-55
2022/06/16 11:54:47;;;;;;;6.20;4.40;;;33.40;54.20;;;;;;4994358;28;20493;-54
2022/06/16 11:57:25;;;;;;;5.20;3.30;;;33.40;55.60;;;;;;5004077;28;20913;-54
2022/06/16 12:00:12;;;;;;;4.70;4.00;;;33.50;54.00;;;;;;5009081;28;20490;-54
2022/06/16 12:03:20;;;;;;;4.30;4.00;;;33.60;53.60;;;;;;5002412;28;20541;-54
2022/06/16 12:05:55;;;;;;;3.77;3.40;;;33.70;54.40;;;;;;5007708;28;20480;-56
2022/06/16 12:08:37;;;;;;;5.17;4.40;;;33.70;54.90;;;;;;5004471;28;20472;-56
2022/06/16 12:11:10;;;;;;;5.23;3.53;;;33.40;52.30;;;;;;5008202;28;20460;-53
2022/06/16 12:13:49;;;;;;;6.50;4.30;;;33.40;53.50;;;;;;5010301;28;20480;-54
2022/06/16 12:16:25;;;;;;;4.00;3.67;;;33.40;50.70;;;;;;5010191;28;20485;-57
2022/06/16 12:19:02;;;;;;;4.07;3.77;;;33.40;52.60;;;;;;5009162;28;20606;-54
2022/06/16 12:21:33;;;;;;;3.77;3.47;;;33.50;55.00;;;;;;5009921;28;20487;-54
2022/06/16 12:24:05;;;;;;;5.07;4.60;;;33.60;54.20;;;;;;5014480;28;20488;-54
2022/06/16 12:26:37;;;;;;;4.30;3.60;;;33.60;52.30;;;;;;5007466;28;20481;-54
2022/06/16 12:29:15;;;;;;;6.33;3.77;;;33.70;51.90;;;;;;5006769;28;20872;-54
2022/06/16 12:31:53;;;;;;;3.53;3.27;;;33.70;53.30;;;;;;5008969;28;21366;-54
2022/06/16 12:34:30;;;;;;;5.03;4.53;;;33.80;54.70;;;;;;5001796;28;20868;-55
2022/06/16 12:37:03;;;;;;;8.27;4.00;;;33.80;51.20;;;;;;5005627;28;20989;-56
2022/06/16 12:39:33;;;;;;;3.90;3.60;;;33.70;52.90;;;;;;4996546;28;20489;-55
2022/06/16 12:42:05;;;;;;;4.53;3.67;;;33.60;51.10;;;;;;5005886;28;20458;-54
2022/06/16 12:44:37;;;;;;;3.90;3.47;;;33.60;53.50;;;;;;5005420;28;20481;-55
2022/06/16 12:47:09;;;;;;;3.90;3.50;;;33.50;50.50;;;;;;5006281;28;20487;-54
2022/06/16 12:49:42;;;;;;;4.30;3.80;;;33.50;51.50;;;;;;5005166;28;20875;-55
2022/06/16 12:52:14;;;;;;;4.77;3.90;;;33.60;51.10;;;;;;4993509;28;20560;-54
2022/06/16 12:54:47;;;;;;;4.23;3.83;;;33.60;51.90;;;;;;5012486;28;20493;-55
2022/06/16 12:57:18;;;;;;;6.33;3.77;;;33.50;51.60;;;;;;5005121;28;20492;-54
2022/06/16 12:59:50;;;;;;;6.33;4.20;;;33.50;50.30;;;;;;5006407;28;20514;-53
2022/06/16 13:02:20;;;;;;;4.37;3.40;;;33.40;49.00;;;;;;5001638;28;20462;-56
2022/06/16 13:04:52;;;;;;;3.40;3.20;;;33.50;51.30;;;;;;4998288;28;20480;-54
2022/06/16 13:07:23;;;;;;;3.13;2.83;;;33.40;48.70;;;;;;4997865;28;21546;-53
2022/06/16 13:09:50;;;;;;;3.67;3.30;;;33.50;50.30;;;;;;5008326;28;20477;-54
2022/06/16 13:12:21;;;;;;;5.90;3.30;;;33.50;51.00;;;;;;5013607;28;20908;-53
2022/06/16 13:14:54;;;;;;;7.20;3.37;;;33.50;48.70;;;;;;5008655;28;20480;-54
2022/06/16 13:17:27;;;;;;;6.57;3.40;;;33.60;50.70;;;;;;5000773;28;20483;-55
2022/06/16 13:19:59;;;;;;;3.80;3.27;;;33.80;49.70;;;;;;4997886;28;20538;-54
2022/06/16 13:22:31;;;;;;;4.03;3.60;;;33.80;50.00;;;;;;5002602;28;20491;-53
2022/06/16 13:25:00;;;;;;;6.60;3.60;;;33.80;50.20;;;;;;5009692;28;20513;-54
2022/06/16 13:27:29;;;;;;;6.53;3.63;;;33.90;49.60;;;;;;5008237;28;20500;-54
2022/06/16 13:30:13;;;;;;;8.00;3.80;;;33.80;48.80;;;;;;5009798;28;20451;-54